Terminal Aerodrome Forecast
Issued by NWS

Home | Current Version | Previous Version | Text Only | Print | Product List | Glossary On
Versions: 1 2 3 4 5 6 7 8 9 10 11 12 13 14 15 16 17
000
FTUS42 KFFC 231742
TAFPDK
TAF
KPDK 231742Z 2318/2418 02007KT P6SM BKN010 BKN025
      TEMPO 2320/2324 VRB15G22KT 4SM -TSRA OVC020CB
     FM240100 17003KT P6SM VCSH OVC035
     FM240600 22002KT P6SM BKN045
     FM241000 22002KT P6SM BKN010
     FM241600 09005KT P6SM SHRA BKN035=

USA.gov is the U.S. government's official web portal to all federal, state and local government web resources and services.